createdAt,value
2018-10-03T00:01:37.662Z,64.50
2018-10-03T00:04:05.823Z,64.50
2018-10-03T00:06:33.991Z,64.50
2018-10-03T00:09:02.155Z,64.70
2018-10-03T00:11:30.322Z,64.60
2018-10-03T00:13:58.476Z,64.80
2018-10-03T00:16:26.640Z,64.80
2018-10-03T00:18:54.790Z,64.90
2018-10-03T00:21:22.959Z,64.90
2018-10-03T00:23:51.127Z,64.90
2018-10-03T00:26:19.302Z,65.10
2018-10-03T00:28:47.583Z,65.20
2018-10-03T00:31:15.743Z,65.20
2018-10-03T00:33:43.917Z,65.30
2018-10-03T00:36:12.174Z,65.30
2018-10-03T00:38:40.364Z,65.30
2018-10-03T00:41:08.976Z,65.40
2018-10-03T00:43:37.452Z,65.50
2018-10-03T00:46:05.627Z,65.70
2018-10-03T00:48:33.800Z,65.90
2018-10-03T00:51:01.964Z,66.00
2018-10-03T00:53:30.151Z,66.00
2018-10-03T00:55:58.311Z,66.10
2018-10-03T00:58:26.484Z,66.00
2018-10-03T01:00:54.654Z,67.00
2018-10-03T01:03:22.835Z,67.00
2018-10-03T01:05:51.003Z,66.10
2018-10-03T01:08:19.167Z,67.10
2018-10-03T01:10:47.352Z,66.30
2018-10-03T01:13:15.513Z,66.40
2018-10-03T01:15:43.662Z,65.90
2018-10-03T01:18:11.815Z,66.60
2018-10-03T01:20:40.079Z,66.70
2018-10-03T01:23:08.331Z,66.70
2018-10-03T01:25:36.527Z,66.70
2018-10-03T01:28:04.832Z,67.20
2018-10-03T01:30:32.994Z,66.90
2018-10-03T01:33:01.199Z,66.80
2018-10-03T01:35:29.464Z,66.90
2018-10-03T01:37:57.741Z,66.90
2018-10-03T01:40:25.918Z,66.90
2018-10-03T01:42:54.136Z,67.00
2018-10-03T01:45:22.418Z,67.00
2018-10-03T01:47:50.755Z,66.90
2018-10-03T01:50:18.926Z,67.00
2018-10-03T01:52:47.184Z,66.90
2018-10-03T01:55:15.383Z,67.00
2018-10-03T01:57:43.582Z,66.90
2018-10-03T02:00:11.791Z,66.90
2018-10-03T02:02:40.007Z,67.00
2018-10-03T02:05:08.223Z,67.00
2018-10-03T02:07:36.472Z,67.10
2018-10-03T02:10:04.803Z,67.10
2018-10-03T02:12:32.999Z,67.90
2018-10-03T02:15:01.171Z,67.10
2018-10-03T02:17:29.364Z,67.20
2018-10-03T02:19:57.592Z,67.20
2018-10-03T02:22:25.811Z,67.20
2018-10-03T02:24:54.020Z,67.20
2018-10-03T02:27:22.364Z,67.30
2018-10-03T02:29:50.583Z,67.40
2018-10-03T02:32:18.791Z,67.20
2018-10-03T02:34:46.954Z,67.20
2018-10-03T02:37:15.185Z,67.20
2018-10-03T02:39:43.375Z,67.40
2018-10-03T02:42:11.601Z,67.70
2018-10-03T02:44:39.797Z,67.40
2018-10-03T02:47:08.004Z,67.40
2018-10-03T02:49:36.198Z,67.20
2018-10-03T02:52:04.395Z,67.40
2018-10-03T02:54:32.589Z,67.40
2018-10-03T02:57:00.767Z,67.40
2018-10-03T02:59:28.933Z,67.40
2018-10-03T03:01:57.140Z,67.40
2018-10-03T03:04:25.340Z,67.40
2018-10-03T03:06:53.566Z,67.50
2018-10-03T03:09:21.776Z,67.60
2018-10-03T03:11:49.975Z,67.60
2018-10-03T03:14:18.162Z,67.70
2018-10-03T03:16:46.329Z,67.70
2018-10-03T03:19:14.502Z,67.70
2018-10-03T03:21:42.679Z,67.60
2018-10-03T03:24:10.890Z,67.60
2018-10-03T03:26:39.105Z,67.70
2018-10-03T03:29:07.323Z,67.70
2018-10-03T03:31:35.527Z,67.70
2018-10-03T03:34:03.759Z,67.70
2018-10-03T03:36:31.927Z,67.60
2018-10-03T03:39:00.182Z,67.70
2018-10-03T03:41:28.415Z,67.60
2018-10-03T03:43:56.599Z,67.60
2018-10-03T03:46:24.891Z,67.70
2018-10-03T03:48:53.127Z,67.80
2018-10-03T03:51:21.418Z,67.70
2018-10-03T03:53:49.686Z,67.50
2018-10-03T03:56:17.855Z,67.50
2018-10-03T03:58:46.053Z,67.60
2018-10-03T04:01:14.247Z,67.60
2018-10-03T04:03:42.500Z,67.70
2018-10-03T04:06:10.706Z,67.80
2018-10-03T04:08:38.922Z,67.80
2018-10-03T04:11:07.117Z,67.80
2018-10-03T04:13:35.304Z,67.80
2018-10-03T04:16:03.471Z,67.70
2018-10-03T04:18:31.643Z,67.80
2018-10-03T04:20:59.818Z,68.00
2018-10-03T04:23:28.022Z,67.90
2018-10-03T04:25:56.218Z,67.80
2018-10-03T04:28:24.396Z,67.80
2018-10-03T04:30:52.552Z,67.70
2018-10-03T04:33:20.804Z,67.80
2018-10-03T04:35:49.094Z,67.90
2018-10-03T04:38:17.214Z,68.00
2018-10-03T04:40:45.448Z,67.90
2018-10-03T04:43:13.701Z,67.70
2018-10-03T04:45:41.870Z,67.70
2018-10-03T04:48:10.138Z,67.80
2018-10-03T04:50:38.342Z,67.70
2018-10-03T04:53:06.543Z,67.60
2018-10-03T04:55:34.910Z,67.50
2018-10-03T04:58:03.346Z,67.60
2018-10-03T05:00:31.571Z,67.50
2018-10-03T05:02:59.807Z,67.50
2018-10-03T05:05:28.052Z,67.30
2018-10-03T05:07:56.250Z,67.30
2018-10-03T05:10:24.470Z,67.20
2018-10-03T05:12:52.674Z,68.10
2018-10-03T05:15:20.863Z,67.20
2018-10-03T05:17:49.091Z,67.40
2018-10-03T05:20:18.219Z,67.30
2018-10-03T05:22:46.499Z,67.40
2018-10-03T05:25:14.695Z,67.30
2018-10-03T05:27:42.903Z,67.20
2018-10-03T05:30:11.191Z,67.10
2018-10-03T05:32:39.358Z,67.00
2018-10-03T05:35:08.502Z,67.00
2018-10-03T05:37:36.678Z,67.00
2018-10-03T05:40:04.889Z,66.90
2018-10-03T05:42:33.094Z,67.50
2018-10-03T05:45:02.077Z,66.90
2018-10-03T05:47:30.491Z,67.00
2018-10-03T05:49:58.716Z,66.70
2018-10-03T05:52:26.883Z,66.80
2018-10-03T05:54:55.134Z,66.60
2018-10-03T05:57:23.331Z,66.70
2018-10-03T05:59:51.538Z,66.70
2018-10-03T06:02:19.819Z,66.70
2018-10-03T06:04:49.058Z,66.50
2018-10-03T06:07:17.288Z,67.40
2018-10-03T06:09:45.598Z,66.70
2018-10-03T06:12:13.873Z,66.70
2018-10-03T06:14:42.028Z,66.60
2018-10-03T06:17:10.294Z,66.70
2018-10-03T06:19:38.504Z,66.70
2018-10-03T06:22:06.784Z,66.80
2018-10-03T06:24:35.013Z,66.70
2018-10-03T06:27:03.227Z,66.70
2018-10-03T06:29:31.398Z,66.60
2018-10-03T06:31:59.577Z,66.70
2018-10-03T06:34:27.778Z,67.10
2018-10-03T06:36:55.955Z,67.20
2018-10-03T06:39:24.313Z,67.10
2018-10-03T06:41:52.464Z,66.90
2018-10-03T06:44:20.695Z,66.80
2018-10-03T06:46:48.866Z,66.80
2018-10-03T06:49:17.064Z,66.70
2018-10-03T06:51:45.228Z,66.60
2018-10-03T06:54:13.416Z,66.50
2018-10-03T06:56:41.811Z,66.30
2018-10-03T06:59:10.111Z,66.10
2018-10-03T07:01:38.339Z,66.20
2018-10-03T07:04:06.835Z,66.00
2018-10-03T07:06:35.042Z,66.60
2018-10-03T07:09:04.188Z,65.70
2018-10-03T07:11:32.394Z,65.80
2018-10-03T07:14:00.654Z,65.80
2018-10-03T07:16:28.874Z,65.90
2018-10-03T07:18:57.119Z,65.70
2018-10-03T07:21:25.288Z,65.50
2018-10-03T07:23:53.467Z,65.30
2018-10-03T07:26:21.650Z,64.80
2018-10-03T07:28:49.932Z,64.60
2018-10-03T07:31:18.491Z,64.20
2018-10-03T07:33:46.669Z,64.40
2018-10-03T07:36:14.891Z,64.40
2018-10-03T07:38:43.120Z,64.50
2018-10-03T07:41:11.347Z,64.10
2018-10-03T07:43:39.541Z,64.30
2018-10-03T07:46:07.748Z,64.40
2018-10-03T07:48:35.983Z,64.20
2018-10-03T07:51:04.290Z,63.60
2018-10-03T07:53:32.634Z,63.20
2018-10-03T07:56:00.761Z,63.10
2018-10-03T07:58:29.027Z,63.30
2018-10-03T08:00:57.245Z,63.00
2018-10-03T08:03:25.414Z,62.70
2018-10-03T08:05:53.613Z,62.70
2018-10-03T08:08:21.794Z,62.90
2018-10-03T08:10:49.986Z,63.00
2018-10-03T08:13:18.154Z,62.80
2018-10-03T08:15:46.434Z,63.20
2018-10-03T08:18:14.593Z,62.10
2018-10-03T08:20:42.754Z,61.90
2018-10-03T08:23:10.947Z,61.70
2018-10-03T08:25:39.266Z,61.10
2018-10-03T08:28:07.411Z,60.70
2018-10-03T08:30:35.590Z,60.80
2018-10-03T08:33:03.769Z,60.50
2018-10-03T08:35:31.928Z,60.10
2018-10-03T08:38:00.091Z,60.20
2018-10-03T08:40:28.471Z,60.10
2018-10-03T08:42:56.727Z,59.90
2018-10-03T08:45:25.641Z,59.60
2018-10-03T08:47:53.944Z,59.70
2018-10-03T08:50:22.134Z,59.70
2018-10-03T08:52:50.308Z,59.90
2018-10-03T08:55:18.562Z,59.60
2018-10-03T08:57:46.936Z,59.30
2018-10-03T09:00:15.078Z,58.90
2018-10-03T09:02:43.283Z,58.50
2018-10-03T09:05:12.091Z,58.00
2018-10-03T09:07:40.283Z,57.80
2018-10-03T09:10:08.455Z,58.10
2018-10-03T09:12:36.718Z,57.80
2018-10-03T09:15:05.417Z,57.40
2018-10-03T09:17:33.594Z,57.20
2018-10-03T09:20:01.765Z,57.00
2018-10-03T09:22:30.143Z,57.00
2018-10-03T09:24:58.317Z,56.80
2018-10-03T09:27:26.615Z,56.50
2018-10-03T09:30:01.608Z,56.30
2018-10-03T09:32:29.875Z,55.80
2018-10-03T09:34:58.131Z,55.80
2018-10-03T09:37:26.398Z,55.70
2018-10-03T09:39:54.653Z,55.60
2018-10-03T09:42:22.998Z,55.50
2018-10-03T09:44:51.186Z,55.30
2018-10-03T09:47:19.355Z,54.50
2018-10-03T09:49:47.546Z,53.90
2018-10-03T09:52:15.742Z,53.90
2018-10-03T09:54:43.946Z,53.90
2018-10-03T09:57:12.138Z,54.10
2018-10-03T09:59:40.388Z,53.90
2018-10-03T10:02:08.675Z,53.70
2018-10-03T10:04:37.008Z,53.50
2018-10-03T10:07:05.200Z,53.10
2018-10-03T10:09:33.370Z,52.80
2018-10-03T10:12:01.701Z,52.60
2018-10-03T10:14:30.319Z,52.40
2018-10-03T10:17:00.752Z,52.40
2018-10-03T10:19:28.941Z,51.70
2018-10-03T10:21:57.630Z,51.10
2018-10-03T10:24:26.209Z,50.70
2018-10-03T10:26:54.395Z,50.20
2018-10-03T10:29:22.962Z,49.40
2018-10-03T10:31:51.169Z,49.00
2018-10-03T10:34:19.323Z,49.00
2018-10-03T10:36:47.737Z,48.90
2018-10-03T10:39:16.051Z,49.30
2018-10-03T10:41:44.216Z,48.70
2018-10-03T10:44:12.437Z,48.60
2018-10-03T10:46:40.704Z,48.50
2018-10-03T10:49:09.199Z,48.00
2018-10-03T10:51:37.820Z,47.90
2018-10-03T10:54:05.983Z,47.80
2018-10-03T10:56:34.170Z,47.40
2018-10-03T10:59:02.573Z,47.10
2018-10-03T11:01:30.750Z,46.70
2018-10-03T11:03:58.979Z,46.50
2018-10-03T11:06:27.225Z,46.20
2018-10-03T11:08:55.558Z,46.40
2018-10-03T11:11:23.859Z,46.70
2018-10-03T11:13:52.031Z,46.50
2018-10-03T11:16:20.344Z,46.60
2018-10-03T11:18:48.535Z,46.60
2018-10-03T11:21:16.738Z,46.70
2018-10-03T11:23:45.063Z,47.00
2018-10-03T11:26:13.135Z,47.30
2018-10-03T11:28:41.315Z,47.30
2018-10-03T11:31:09.582Z,47.20
2018-10-03T11:33:37.801Z,47.00
2018-10-03T11:36:06.032Z,47.10
2018-10-03T11:38:34.328Z,47.40
2018-10-03T11:41:02.564Z,47.20
2018-10-03T11:43:30.841Z,47.10
2018-10-03T11:46:00.216Z,47.10
2018-10-03T11:48:29.735Z,47.50
2018-10-03T11:50:59.142Z,47.50
2018-10-03T11:53:27.378Z,47.60
2018-10-03T11:55:55.554Z,47.00
2018-10-03T11:58:23.831Z,46.10
2018-10-03T12:00:52.274Z,46.30
2018-10-03T12:03:20.576Z,46.50
2018-10-03T12:05:48.652Z,46.50
2018-10-03T12:08:16.985Z,46.60
2018-10-03T12:10:45.143Z,46.50
2018-10-03T12:13:13.314Z,47.10
2018-10-03T12:15:41.502Z,46.10
2018-10-03T12:18:10.499Z,45.90
2018-10-03T12:20:38.621Z,45.60
2018-10-03T12:23:06.859Z,45.50
2018-10-03T12:25:35.024Z,45.20
2018-10-03T12:28:03.186Z,45.00
2018-10-03T12:30:31.366Z,44.80
2018-10-03T12:32:59.535Z,44.80
2018-10-03T12:35:32.832Z,45.40
2018-10-03T12:38:01.187Z,45.10
2018-10-03T12:40:29.592Z,45.00
2018-10-03T12:42:57.772Z,44.60
2018-10-03T12:45:26.558Z,44.20
2018-10-03T12:47:54.935Z,44.00
2018-10-03T12:50:23.107Z,44.20
2018-10-03T12:52:51.362Z,44.00
2018-10-03T12:55:19.558Z,44.20
2018-10-03T12:57:47.788Z,44.30
2018-10-03T13:00:16.214Z,44.50
2018-10-03T13:02:44.399Z,44.40
2018-10-03T13:05:12.585Z,44.30
2018-10-03T13:07:42.376Z,44.40
2018-10-03T13:10:10.559Z,44.40
2018-10-03T13:12:38.702Z,44.30
2018-10-03T13:15:06.978Z,44.40
2018-10-03T13:17:35.158Z,44.30
2018-10-03T13:20:03.316Z,44.40
2018-10-03T13:22:31.508Z,44.70
2018-10-03T13:24:59.670Z,44.40
2018-10-03T13:27:27.987Z,44.20
2018-10-03T13:29:56.194Z,44.30
2018-10-03T13:32:24.405Z,44.60
2018-10-03T13:34:52.575Z,44.70
2018-10-03T13:37:20.737Z,43.60
2018-10-03T13:39:48.925Z,44.40
2018-10-03T13:42:17.074Z,44.20
2018-10-03T13:44:45.267Z,44.00
2018-10-03T13:47:13.443Z,44.00
2018-10-03T13:49:41.631Z,44.20
2018-10-03T13:52:09.790Z,44.30
2018-10-03T13:54:38.067Z,44.50
2018-10-03T13:57:06.239Z,44.60
2018-10-03T13:59:34.420Z,44.10
2018-10-03T14:02:02.583Z,43.60
2018-10-03T14:04:32.586Z,43.50
2018-10-03T14:07:00.999Z,43.40
2018-10-03T14:09:29.194Z,43.20
2018-10-03T14:11:58.600Z,43.10
2018-10-03T14:14:27.654Z,42.90
2018-10-03T14:16:55.840Z,42.80
2018-10-03T14:19:24.035Z,42.80
2018-10-03T14:21:52.199Z,43.00
2018-10-03T14:24:20.425Z,42.50
2018-10-03T14:26:48.551Z,42.30
2018-10-03T14:29:16.763Z,42.20
2018-10-03T14:31:44.911Z,42.50
2018-10-03T14:34:13.075Z,42.50
2018-10-03T14:36:41.254Z,42.60
2018-10-03T14:39:09.706Z,42.60
2018-10-03T14:41:37.866Z,42.70
2018-10-03T14:44:06.037Z,42.90
2018-10-03T14:46:34.316Z,43.20
2018-10-03T14:49:02.418Z,43.30
2018-10-03T14:51:30.627Z,43.60
2018-10-03T14:53:58.797Z,43.90
2018-10-03T14:56:26.975Z,44.10
2018-10-03T14:58:55.129Z,44.10
2018-10-03T15:01:23.311Z,44.00
2018-10-03T15:03:51.663Z,43.80
2018-10-03T15:06:19.816Z,43.80
2018-10-03T15:08:48.014Z,44.00
2018-10-03T15:11:16.170Z,44.30
2018-10-03T15:13:44.343Z,44.20
2018-10-03T15:16:12.496Z,44.30
2018-10-03T15:18:40.725Z,44.40
2018-10-03T15:21:09.341Z,44.70
2018-10-03T15:23:37.621Z,44.80
2018-10-03T15:26:06.011Z,44.90
2018-10-03T15:28:34.174Z,44.90
2018-10-03T15:31:02.351Z,44.80
2018-10-03T15:33:30.506Z,44.70
2018-10-03T15:35:58.682Z,44.70
2018-10-03T15:38:26.891Z,45.00
2018-10-03T15:40:55.086Z,44.90
2018-10-03T15:43:23.294Z,44.80
2018-10-03T15:45:51.543Z,45.10
2018-10-03T15:48:19.865Z,45.20
2018-10-03T15:50:47.947Z,45.10
2018-10-03T15:53:16.399Z,45.20
2018-10-03T15:55:44.586Z,45.30
2018-10-03T15:58:12.751Z,45.60
2018-10-03T16:00:40.926Z,45.90
2018-10-03T16:03:09.062Z,45.90
2018-10-03T16:05:37.234Z,46.00
2018-10-03T16:08:05.462Z,46.30
2018-10-03T16:10:33.885Z,46.90
2018-10-03T16:13:02.280Z,47.10
2018-10-03T16:15:30.514Z,47.00
2018-10-03T16:17:58.706Z,46.90
2018-10-03T16:20:26.954Z,46.80
2018-10-03T16:22:55.215Z,46.90
2018-10-03T16:25:23.372Z,47.10
2018-10-03T16:27:51.636Z,47.50
2018-10-03T16:30:19.835Z,47.50
2018-10-03T16:32:48.025Z,47.80
2018-10-03T16:35:16.319Z,47.90
2018-10-03T16:37:44.505Z,47.70
2018-10-03T16:40:12.656Z,47.70
2018-10-03T16:42:40.942Z,47.80
2018-10-03T16:45:09.122Z,48.30
2018-10-03T16:47:37.331Z,48.30
2018-10-03T16:50:05.621Z,48.30
2018-10-03T16:52:33.754Z,48.30
2018-10-03T16:55:02.084Z,48.40
2018-10-03T16:57:30.290Z,48.60
2018-10-03T16:59:58.479Z,48.70
2018-10-03T17:02:26.628Z,48.80
2018-10-03T17:04:55.239Z,48.50
2018-10-03T17:07:23.408Z,49.10
2018-10-03T17:09:51.600Z,49.40
2018-10-03T17:12:19.824Z,49.20
2018-10-03T17:14:48.038Z,49.20
2018-10-03T17:17:16.274Z,49.40
2018-10-03T17:19:44.451Z,49.60
2018-10-03T17:22:12.734Z,50.50
2018-10-03T17:24:40.978Z,50.00
2018-10-03T17:27:09.188Z,50.10
2018-10-03T17:29:37.431Z,50.30
2018-10-03T17:32:05.660Z,50.70
2018-10-03T17:34:33.812Z,51.00
2018-10-03T17:37:02.004Z,51.00
2018-10-03T17:39:30.270Z,51.00
2018-10-03T17:41:58.713Z,51.20
2018-10-03T17:44:26.927Z,51.30
2018-10-03T17:46:56.552Z,51.40
2018-10-03T17:49:24.767Z,51.60
2018-10-03T17:51:53.097Z,51.60
2018-10-03T17:54:21.580Z,51.70
2018-10-03T17:56:49.855Z,51.80
2018-10-03T17:59:18.043Z,52.10
2018-10-03T18:01:48.151Z,52.10
2018-10-03T18:04:16.390Z,52.40
2018-10-03T18:06:44.572Z,52.50
2018-10-03T18:09:12.937Z,52.70
2018-10-03T18:11:41.107Z,52.80
2018-10-03T18:14:09.321Z,53.00
2018-10-03T18:16:37.731Z,53.10
2018-10-03T18:19:05.953Z,53.10
2018-10-03T18:21:34.862Z,53.30
2018-10-03T18:24:03.050Z,53.40
2018-10-03T18:26:31.222Z,53.50
2018-10-03T18:28:59.415Z,53.60
2018-10-03T18:31:27.590Z,53.60
2018-10-03T18:33:55.801Z,53.60
2018-10-03T18:36:24.452Z,53.60
2018-10-03T18:38:52.659Z,53.80
2018-10-03T18:41:21.074Z,54.00
2018-10-03T18:43:49.329Z,54.00
2018-10-03T18:46:17.642Z,53.60
2018-10-03T18:48:45.892Z,54.10
2018-10-03T18:51:14.106Z,54.10
2018-10-03T18:53:42.986Z,54.30
2018-10-03T18:56:14.040Z,54.30
2018-10-03T18:58:42.339Z,54.30
2018-10-03T19:01:10.524Z,54.50
2018-10-03T19:03:38.776Z,54.50
2018-10-03T19:06:07.059Z,54.50
2018-10-03T19:08:35.209Z,54.50
2018-10-03T19:11:04.193Z,55.10
2018-10-03T19:13:32.434Z,54.60
2018-10-03T19:16:01.041Z,54.70
2018-10-03T19:18:29.531Z,54.70
2018-10-03T19:20:59.122Z,54.80
2018-10-03T19:23:27.363Z,54.80
2018-10-03T19:25:56.051Z,54.90
2018-10-03T19:28:25.053Z,54.90
2018-10-03T19:30:53.342Z,55.20
2018-10-03T19:33:21.717Z,55.30
2018-10-03T19:35:49.999Z,55.50
2018-10-03T19:38:18.934Z,55.50
2018-10-03T19:40:51.705Z,55.60
2018-10-03T19:43:22.392Z,55.70
2018-10-03T19:45:54.181Z,56.00
2018-10-03T19:48:29.996Z,56.00
2018-10-03T19:51:05.086Z,56.20
2018-10-03T19:53:38.459Z,56.30
2018-10-03T19:56:07.618Z,56.50
2018-10-03T19:58:39.711Z,56.50
2018-10-03T20:01:14.016Z,56.70
2018-10-03T20:03:43.143Z,56.80
2018-10-03T20:06:12.322Z,57.40
2018-10-03T20:08:40.900Z,57.20
2018-10-03T20:11:09.079Z,57.30
2018-10-03T20:13:38.255Z,57.40
2018-10-03T20:16:07.503Z,57.60
2018-10-03T20:18:35.937Z,57.80
2018-10-03T20:21:04.158Z,58.00
2018-10-03T20:23:32.466Z,58.10
2018-10-03T20:26:00.643Z,58.20
2018-10-03T20:28:28.952Z,58.30
2018-10-03T20:30:57.313Z,58.50
2018-10-03T20:33:25.610Z,58.60
2018-10-03T20:35:54.511Z,58.60
2018-10-03T20:38:22.684Z,58.90
2018-10-03T20:40:51.591Z,59.00
2018-10-03T20:43:20.120Z,59.00
2018-10-03T20:45:50.047Z,59.20
2018-10-03T20:48:18.641Z,59.20
2018-10-03T20:50:46.819Z,59.30
2018-10-03T20:53:15.123Z,59.50
2018-10-03T20:55:43.515Z,59.90
2018-10-03T20:58:11.667Z,59.80
2018-10-03T21:00:41.209Z,59.90
2018-10-03T21:03:09.359Z,59.80
2018-10-03T21:05:37.526Z,59.80
2018-10-03T21:08:05.742Z,59.80
2018-10-03T21:10:33.930Z,59.90
2018-10-03T21:13:03.515Z,59.70
2018-10-03T21:15:31.789Z,59.90
2018-10-03T21:18:01.106Z,59.90
2018-10-03T21:20:30.077Z,60.00
2018-10-03T21:22:58.338Z,59.80
2018-10-03T21:25:26.687Z,59.90
2018-10-03T21:27:54.903Z,60.00
2018-10-03T21:30:23.215Z,60.00
2018-10-03T21:32:52.871Z,60.10
2018-10-03T21:35:21.795Z,60.00
2018-10-03T21:37:52.005Z,60.10
2018-10-03T21:40:21.114Z,60.00
2018-10-03T21:42:49.373Z,60.00
2018-10-03T21:45:17.523Z,59.90
2018-10-03T21:47:45.731Z,60.00
2018-10-03T21:50:13.907Z,60.00
2018-10-03T21:52:42.104Z,60.20
2018-10-03T21:55:10.490Z,60.20
2018-10-03T21:57:38.696Z,60.20
2018-10-03T22:00:07.954Z,60.30
2018-10-03T22:02:36.179Z,60.20
2018-10-03T22:05:06.465Z,60.20
2018-10-03T22:07:34.657Z,60.20
2018-10-03T22:10:02.839Z,60.40
2018-10-03T22:12:31.075Z,60.40
2018-10-03T22:14:59.261Z,60.50
2018-10-03T22:17:27.403Z,60.60
2018-10-03T22:19:56.663Z,60.50
2018-10-03T22:22:24.930Z,60.50
2018-10-03T22:24:54.245Z,60.80
2018-10-03T22:27:22.411Z,60.90
2018-10-03T22:29:50.925Z,61.00
2018-10-03T22:32:19.406Z,61.00
2018-10-03T22:34:47.607Z,61.10
2018-10-03T22:37:15.835Z,61.20
2018-10-03T22:39:44.071Z,61.20
2018-10-03T22:42:12.260Z,61.20
2018-10-03T22:44:40.423Z,61.40
2018-10-03T22:47:08.711Z,61.30
2018-10-03T22:49:36.867Z,61.50
2018-10-03T22:52:05.063Z,61.40
2018-10-03T22:54:33.287Z,61.40
2018-10-03T22:57:01.460Z,61.50
2018-10-03T22:59:29.638Z,61.40
2018-10-03T23:01:58.165Z,61.50
2018-10-03T23:04:26.543Z,61.40
2018-10-03T23:06:54.694Z,62.20
2018-10-03T23:09:22.859Z,62.30
2018-10-03T23:11:51.041Z,61.60
2018-10-03T23:14:19.211Z,61.60
2018-10-03T23:16:47.442Z,61.80
2018-10-03T23:19:15.590Z,61.90
2018-10-03T23:21:43.805Z,61.90
2018-10-03T23:24:15.983Z,62.00
2018-10-03T23:26:44.152Z,62.00
2018-10-03T23:29:12.298Z,62.00
2018-10-03T23:31:40.464Z,62.10
2018-10-03T23:34:08.698Z,62.00
2018-10-03T23:36:36.874Z,62.00
2018-10-03T23:39:07.810Z,62.10
2018-10-03T23:41:36.005Z,62.10
2018-10-03T23:44:04.167Z,62.10
2018-10-03T23:46:32.343Z,62.20
2018-10-03T23:49:00.502Z,62.30
2018-10-03T23:51:28.678Z,62.30
2018-10-03T23:53:56.844Z,62.10
2018-10-03T23:56:25.026Z,62.30
2018-10-03T23:58:53.204Z,62.30
